Forester — E5U2629 — position and weather

sailwx.info

Track history (hours):
 
Tides and Currents Weather Stations Pressure Air Temp Water Temp Dewpoint Dewpoint Depression Visibility Wind Speed Wind Dir Waves Ship Positions

Forester

Last reported at 2018-Feb-04 05:48 UTC. Time now 2018-Feb-19 10:00 UTC.
Position N 44°31' E 012°27'.
Warning: this ship's position is 15 days out of date.

Length 89 m; draft 4 m.

Type: Cargo ship. MMSI: 518682000.

Date/timePositionNaut miles runAvg speedWind from/ knotsBaromVisibWave heightAir tempDewpointWater temp
2018-Feb-04 05:48N 44°31' E 012°27'  
2018-Jan-30 03:52N 44°48' E 012°49'4 8.6
2018-Jan-30 03:22N 44°52' E 012°52'6 8.5
2018-Jan-30 02:43N 44°57' E 012°55'3 8.5
2018-Jan-30 02:25N 44°59' E 012°57'3 8.5
2018-Jan-30 02:01N 45°03' E 012°58'4 8.5
2018-Jan-30 01:30N 45°07' E 013°01'4 8.4
2018-Jan-30 01:00N 45°11' E 013°01'4 8.6
2018-Jan-30 00:30N 45°15' E 013°01'4 8.6
2018-Jan-30 00:00N 45°19' E 013°01'4 8.0
2018-Jan-29 23:30N 45°23' E 013°03'4 8.5
2018-Jan-29 23:00N 45°26' E 013°07'5 8.6
2018-Jan-29 22:24N 45°30' E 013°12'4 8.8
2018-Jan-29 22:00N 45°32' E 013°16'5 8.6
2018-Jan-29 21:27N 45°35' E 013°22'4 8.8
2018-Jan-29 21:00N 45°36' E 013°27'6 8.6
2018-Jan-29 20:21N 45°38' E 013°35'3 8.5
2018-Jan-29 20:00N 45°36' E 013°39'5 8.2
2018-Jan-29 19:27N 45°33' E 013°43'0 0.8
2018-Jan-29 19:00N 45°33' E 013°44'0 0.0
2018-Jan-29 18:27N 45°33' E 013°44'0 0.0
2018-Jan-29 17:54N 45°33' E 013°44'0 0.0
2018-Jan-29 17:24N 45°33' E 013°44'0 0.0
2018-Jan-29 17:00N 45°33' E 013°44'0 0.0
2018-Jan-29 16:27N 45°33' E 013°44'0 0.0
2018-Jan-29 15:51N 45°33' E 013°44'0 0.0
2018-Jan-29 15:30N 45°33' E 013°44'0 0.0
2018-Jan-29 15:00N 45°33' E 013°44'0 0.0
2018-Jan-29 14:27N 45°33' E 013°44'0 0.0
2018-Jan-29 13:51N 45°33' E 013°44'0 0.0
2018-Jan-29 13:29N 45°33' E 013°44'0 0.0
2018-Jan-29 12:56N 45°33' E 013°44'0 0.0
2018-Jan-29 12:26N 45°33' E 013°44'0 0.0
2018-Jan-29 11:56N 45°33' E 013°44'0 0.0
2018-Jan-29 11:23N 45°33' E 013°44'0 0.0
2018-Jan-29 10:59N 45°33' E 013°44'0 0.0
2018-Jan-29 10:23N 45°33' E 013°44'0 0.0
2018-Jan-29 09:49N 45°33' E 013°44'0 0.0
2018-Jan-29 09:22N 45°33' E 013°44'0 0.0
2018-Jan-29 08:58N 45°33' E 013°44'0 0.0
2018-Jan-29 08:25N 45°33' E 013°44'0 0.0
2018-Jan-29 07:49N 45°33' E 013°44'0 0.0
2018-Jan-29 07:25N 45°33' E 013°44'0 0.0
2018-Jan-29 07:00N 45°33' E 013°44'0 0.0
2018-Jan-29 06:30N 45°33' E 013°44'0 0.0
2018-Jan-29 05:54N 45°33' E 013°44'0 0.0
2018-Jan-29 05:30N 45°33' E 013°44'0 0.0
2018-Jan-29 05:00N 45°33' E 013°44'0 0.0
2018-Jan-29 04:30N 45°33' E 013°44'0 0.0
2018-Jan-29 03:57N 45°33' E 013°44'0 0.0
2018-Jan-29 03:30N 45°33' E 013°44'0 0.0
2018-Jan-29 03:00N 45°33' E 013°44'0 0.0
2018-Jan-29 02:27N 45°33' E 013°44'0 0.0
2018-Jan-29 02:00N 45°33' E 013°44'0 0.0
2018-Jan-29 01:24N 45°33' E 013°44'0 0.0
2018-Jan-29 01:00N 45°33' E 013°44'0 0.0
2018-Jan-29 00:30N 45°33' E 013°44'0 0.0
2018-Jan-28 23:54N 45°33' E 013°44'0 0.0
2018-Jan-28 23:27N 45°33' E 013°44'0 0.1
2018-Jan-28 23:00N 45°33' E 013°44'0 0.0
2018-Jan-28 22:30N 45°33' E 013°44'0 0.0
2018-Jan-28 22:00N 45°33' E 013°44'0 0.0
2018-Jan-28 21:27N 45°33' E 013°44'0 0.0
2018-Jan-28 21:00N 45°33' E 013°44'0 0.0
2018-Jan-28 20:30N 45°33' E 013°44'0 0.0
2018-Jan-28 20:00N 45°33' E 013°44'0 0.0
2018-Jan-28 19:30N 45°33' E 013°44'0 0.0
2018-Jan-28 19:00N 45°33' E 013°44'0 0.0
2018-Jan-28 18:21N 45°33' E 013°44'0 0.0
2018-Jan-28 17:54N 45°33' E 013°44'0 0.0
2018-Jan-28 17:30N 45°33' E 013°44'0 0.0
2018-Jan-28 17:00N 45°33' E 013°44'0 0.0
2018-Jan-28 16:24N 45°33' E 013°44'0 0.0
2018-Jan-28 16:00N 45°33' E 013°44'0 0.0
2018-Jan-28 15:24N 45°33' E 013°44'0 0.0
2018-Jan-28 14:57N 45°33' E 013°44'0 0.0
2018-Jan-28 14:27N 45°33' E 013°44'0 0.0
2018-Jan-28 13:51N 45°33' E 013°44'0 0.0
2018-Jan-28 13:24N 45°33' E 013°44'0 0.0
2018-Jan-28 13:00N 45°33' E 013°44'0 0.0
2018-Jan-28 12:30N 45°33' E 013°44'0 0.0
2018-Jan-28 12:00N 45°33' E 013°44'0 0.0
2018-Jan-28 11:30N 45°33' E 013°44'0 0.0
2018-Jan-28 11:00N 45°33' E 013°44'0 0.0
2018-Jan-28 10:30N 45°33' E 013°44'0 0.0
2018-Jan-28 10:00N 45°33' E 013°44'0 0.0
2018-Jan-28 09:30N 45°33' E 013°44'0 0.0
2018-Jan-28 08:56N 45°33' E 013°44'0 0.0
2018-Jan-28 08:26N 45°33' E 013°44'0 0.0
2018-Jan-28 07:59N 45°33' E 013°44'0 0.0
2018-Jan-28 07:29N 45°33' E 013°44'0 0.0
2018-Jan-28 06:59N 45°33' E 013°44'0 0.0
2018-Jan-28 06:29N 45°33' E 013°44'0 0.0
2018-Jan-28 05:59N 45°33' E 013°44'0 0.0
2018-Jan-28 05:29N 45°33' E 013°44'0 0.0
2018-Jan-28 04:59N 45°33' E 013°44'0 0.0
2018-Jan-28 04:29N 45°33' E 013°44'0 0.0
2018-Jan-28 03:59N 45°33' E 013°44'0 0.0
2018-Jan-28 03:29N 45°33' E 013°44'0 0.0
2018-Jan-28 02:56N 45°33' E 013°44'0 0.0
2018-Jan-28 02:29N 45°33' E 013°44'0 0.0
2018-Jan-28 01:56N 45°33' E 013°44'0 0.0
2018-Jan-28 01:30N 45°33' E 013°44'0 0.0
2018-Jan-28 00:59N 45°33' E 013°44'0 0.0
2018-Jan-28 00:26N 45°33' E 013°44'0 0.0
2018-Jan-27 23:56N 45°33' E 013°44'0 0.0
2018-Jan-27 23:29N 45°33' E 013°44'0 0.0
2018-Jan-27 22:59N 45°33' E 013°44'0 0.0
2018-Jan-27 22:29N 45°33' E 013°44'0 0.0
2018-Jan-27 21:59N 45°33' E 013°44'0 0.0
2018-Jan-27 21:29N 45°33' E 013°44'0 0.0
2018-Jan-27 20:44N 45°33' E 013°44'0 0.1
2018-Jan-27 20:29N 45°33' E 013°44'0 0.0
2018-Jan-27 19:59N 45°33' E 013°44'0 0.0
2018-Jan-27 19:30N 45°33' E 013°44'1 2.8
2018-Jan-27 19:00N 45°34' E 013°42'3 6.9
2018-Jan-27 18:30N 45°34' E 013°37'5 9.1
2018-Jan-27 18:00N 45°34' E 013°31'5 9.4
2018-Jan-27 17:30N 45°32' E 013°25'5 9.2
2018-Jan-27 17:00N 45°30' E 013°19'5 9.3
2018-Jan-27 16:30N 45°28' E 013°13'5 9.4
2018-Jan-27 16:00N 45°26' E 013°07'5 9.3
2018-Jan-27 15:30N 45°24' E 013°01'5 9.1
2018-Jan-27 15:00N 45°22' E 012°55'4 7.5
2018-Jan-27 14:31N 45°20' E 012°50'0 0.5
2018-Jan-27 13:58N 45°20' E 012°51'0 0.5
2018-Jan-27 13:21N 45°20' E 012°51'0 0.5
2018-Jan-27 13:00N 45°20' E 012°51'0 0.6
2018-Jan-27 12:30N 45°21' E 012°52'0 0.6
2018-Jan-27 12:00N 45°21' E 012°52'0 0.7
2018-Jan-27 11:30N 45°21' E 012°52'0 0.7
2018-Jan-27 11:00N 45°21' E 012°53'0 0.8
2018-Jan-27 10:30N 45°22' E 012°53'0 0.9
2018-Jan-27 10:00N 45°22' E 012°53'0 0.8
2018-Jan-27 09:30N 45°23' E 012°53'0 0.7
2018-Jan-27 09:00N 45°23' E 012°54'0 0.6
2018-Jan-27 08:30N 45°23' E 012°54'0 0.7
2018-Jan-27 08:00N 45°23' E 012°54'0 0.6
2018-Jan-27 07:30N 45°24' E 012°54'0 0.6
2018-Jan-27 07:00N 45°24' E 012°55'0 0.6
2018-Jan-27 06:30N 45°24' E 012°55'0 0.5
2018-Jan-27 06:00N 45°24' E 012°55'0 0.5
2018-Jan-27 05:29N 45°24' E 012°56'1 1.1
2018-Jan-27 05:00N 45°24' E 012°56'2 4.8
2018-Jan-27 04:30N 45°24' E 012°60'3 6.2
2018-Jan-27 04:00N 45°24' E 013°04'3 5.5
2018-Jan-27 03:30N 45°23' E 013°08'3 6.5
2018-Jan-27 03:00N 45°20' E 013°09'3 6.5
2018-Jan-27 02:30N 45°17' E 013°11'3 6.6
2018-Jan-27 02:00N 45°14' E 013°13'3 6.6
2018-Jan-27 01:30N 45°11' E 013°15'3 6.4
2018-Jan-27 01:00N 45°08' E 013°17'3 6.5
2018-Jan-27 00:30N 45°05' E 013°19'3 6.5
2018-Jan-27 00:00N 45°02' E 013°21'3 6.0
2018-Jan-26 23:30N 44°60' E 013°18'5 9.4
2018-Jan-26 23:00N 44°57' E 013°13'5 9.7
2018-Jan-26 22:30N 44°54' E 013°08'5 9.7
2018-Jan-26 22:00N 44°51' E 013°02'5 9.4
2018-Jan-26 21:30N 44°48' E 012°57'5 9.5
2018-Jan-26 21:00N 44°45' E 012°51'4 8.5
2018-Jan-26 20:30N 44°43' E 012°46'  
Track history (hours):
 
Tides and Currents Weather Stations Pressure Air Temp Water Temp Dewpoint Dewpoint Depression Visibility Wind Speed Wind Dir Waves Ship Positions

Forester

Last reported at 2018-Feb-04 05:48 UTC. Time now 2018-Feb-19 10:00 UTC.
Position N 44°31' E 012°27'.
Warning: this ship's position is 15 days out of date.

Length 89 m; draft 4 m.

Type: Cargo ship. MMSI: 518682000.

Date/timePositionNaut miles runAvg speedWind from/ knotsBaromVisibWave heightAir tempDewpointWater temp
2018-Feb-04 05:48N 44°31' E 012°27'  
2018-Jan-30 03:52N 44°48' E 012°49'4 8.6
2018-Jan-30 03:22N 44°52' E 012°52'6 8.5
2018-Jan-30 02:43N 44°57' E 012°55'3 8.5
2018-Jan-30 02:25N 44°59' E 012°57'3 8.5
2018-Jan-30 02:01N 45°03' E 012°58'4 8.5
2018-Jan-30 01:30N 45°07' E 013°01'4 8.4
2018-Jan-30 01:00N 45°11' E 013°01'4 8.6
2018-Jan-30 00:30N 45°15' E 013°01'4 8.6
2018-Jan-30 00:00N 45°19' E 013°01'4 8.0
2018-Jan-29 23:30N 45°23' E 013°03'4 8.5
2018-Jan-29 23:00N 45°26' E 013°07'5 8.6
2018-Jan-29 22:24N 45°30' E 013°12'4 8.8
2018-Jan-29 22:00N 45°32' E 013°16'5 8.6
2018-Jan-29 21:27N 45°35' E 013°22'4 8.8
2018-Jan-29 21:00N 45°36' E 013°27'6 8.6
2018-Jan-29 20:21N 45°38' E 013°35'3 8.5
2018-Jan-29 20:00N 45°36' E 013°39'5 8.2
2018-Jan-29 19:27N 45°33' E 013°43'0 0.8
2018-Jan-29 19:00N 45°33' E 013°44'0 0.0
2018-Jan-29 18:27N 45°33' E 013°44'0 0.0
2018-Jan-29 17:54N 45°33' E 013°44'0 0.0
2018-Jan-29 17:24N 45°33' E 013°44'0 0.0
2018-Jan-29 17:00N 45°33' E 013°44'0 0.0
2018-Jan-29 16:27N 45°33' E 013°44'0 0.0
2018-Jan-29 15:51N 45°33' E 013°44'0 0.0
2018-Jan-29 15:30N 45°33' E 013°44'0 0.0
2018-Jan-29 15:00N 45°33' E 013°44'0 0.0
2018-Jan-29 14:27N 45°33' E 013°44'0 0.0
2018-Jan-29 13:51N 45°33' E 013°44'0 0.0
2018-Jan-29 13:29N 45°33' E 013°44'0 0.0
2018-Jan-29 12:56N 45°33' E 013°44'0 0.0
2018-Jan-29 12:26N 45°33' E 013°44'0 0.0
2018-Jan-29 11:56N 45°33' E 013°44'0 0.0
2018-Jan-29 11:23N 45°33' E 013°44'0 0.0
2018-Jan-29 10:59N 45°33' E 013°44'0 0.0
2018-Jan-29 10:23N 45°33' E 013°44'0 0.0
2018-Jan-29 09:49N 45°33' E 013°44'0 0.0
2018-Jan-29 09:22N 45°33' E 013°44'0 0.0
2018-Jan-29 08:58N 45°33' E 013°44'0 0.0
2018-Jan-29 08:25N 45°33' E 013°44'0 0.0
2018-Jan-29 07:49N 45°33' E 013°44'0 0.0
2018-Jan-29 07:25N 45°33' E 013°44'0 0.0
2018-Jan-29 07:00N 45°33' E 013°44'0 0.0
2018-Jan-29 06:30N 45°33' E 013°44'0 0.0
2018-Jan-29 05:54N 45°33' E 013°44'0 0.0
2018-Jan-29 05:30N 45°33' E 013°44'0 0.0
2018-Jan-29 05:00N 45°33' E 013°44'0 0.0
2018-Jan-29 04:30N 45°33' E 013°44'0 0.0
2018-Jan-29 03:57N 45°33' E 013°44'0 0.0
2018-Jan-29 03:30N 45°33' E 013°44'0 0.0
2018-Jan-29 03:00N 45°33' E 013°44'0 0.0
2018-Jan-29 02:27N 45°33' E 013°44'0 0.0
2018-Jan-29 02:00N 45°33' E 013°44'0 0.0
2018-Jan-29 01:24N 45°33' E 013°44'0 0.0
2018-Jan-29 01:00N 45°33' E 013°44'0 0.0
2018-Jan-29 00:30N 45°33' E 013°44'0 0.0
2018-Jan-28 23:54N 45°33' E 013°44'0 0.0
2018-Jan-28 23:27N 45°33' E 013°44'0 0.1
2018-Jan-28 23:00N 45°33' E 013°44'0 0.0
2018-Jan-28 22:30N 45°33' E 013°44'0 0.0
2018-Jan-28 22:00N 45°33' E 013°44'0 0.0
2018-Jan-28 21:27N 45°33' E 013°44'0 0.0
2018-Jan-28 21:00N 45°33' E 013°44'0 0.0
2018-Jan-28 20:30N 45°33' E 013°44'0 0.0
2018-Jan-28 20:00N 45°33' E 013°44'0 0.0
2018-Jan-28 19:30N 45°33' E 013°44'0 0.0
2018-Jan-28 19:00N 45°33' E 013°44'0 0.0
2018-Jan-28 18:21N 45°33' E 013°44'0 0.0
2018-Jan-28 17:54N 45°33' E 013°44'0 0.0
2018-Jan-28 17:30N 45°33' E 013°44'0 0.0
2018-Jan-28 17:00N 45°33' E 013°44'0 0.0
2018-Jan-28 16:24N 45°33' E 013°44'0 0.0
2018-Jan-28 16:00N 45°33' E 013°44'0 0.0
2018-Jan-28 15:24N 45°33' E 013°44'0 0.0
2018-Jan-28 14:57N 45°33' E 013°44'0 0.0
2018-Jan-28 14:27N 45°33' E 013°44'0 0.0
2018-Jan-28 13:51N 45°33' E 013°44'0 0.0
2018-Jan-28 13:24N 45°33' E 013°44'0 0.0
2018-Jan-28 13:00N 45°33' E 013°44'0 0.0
2018-Jan-28 12:30N 45°33' E 013°44'0 0.0
2018-Jan-28 12:00N 45°33' E 013°44'0 0.0
2018-Jan-28 11:30N 45°33' E 013°44'0 0.0
2018-Jan-28 11:00N 45°33' E 013°44'0 0.0
2018-Jan-28 10:30N 45°33' E 013°44'0 0.0
2018-Jan-28 10:00N 45°33' E 013°44'0 0.0
2018-Jan-28 09:30N 45°33' E 013°44'0 0.0
2018-Jan-28 08:56N 45°33' E 013°44'0 0.0
2018-Jan-28 08:26N 45°33' E 013°44'0 0.0
2018-Jan-28 07:59N 45°33' E 013°44'0 0.0
2018-Jan-28 07:29N 45°33' E 013°44'0 0.0
2018-Jan-28 06:59N 45°33' E 013°44'0 0.0
2018-Jan-28 06:29N 45°33' E 013°44'0 0.0
2018-Jan-28 05:59N 45°33' E 013°44'0 0.0
2018-Jan-28 05:29N 45°33' E 013°44'0 0.0
2018-Jan-28 04:59N 45°33' E 013°44'0 0.0
2018-Jan-28 04:29N 45°33' E 013°44'0 0.0
2018-Jan-28 03:59N 45°33' E 013°44'0 0.0
2018-Jan-28 03:29N 45°33' E 013°44'0 0.0
2018-Jan-28 02:56N 45°33' E 013°44'0 0.0
2018-Jan-28 02:29N 45°33' E 013°44'0 0.0
2018-Jan-28 01:56N 45°33' E 013°44'0 0.0
2018-Jan-28 01:30N 45°33' E 013°44'0 0.0
2018-Jan-28 00:59N 45°33' E 013°44'0 0.0
2018-Jan-28 00:26N 45°33' E 013°44'0 0.0
2018-Jan-27 23:56N 45°33' E 013°44'0 0.0
2018-Jan-27 23:29N 45°33' E 013°44'0 0.0
2018-Jan-27 22:59N 45°33' E 013°44'0 0.0
2018-Jan-27 22:29N 45°33' E 013°44'0 0.0
2018-Jan-27 21:59N 45°33' E 013°44'0 0.0
2018-Jan-27 21:29N 45°33' E 013°44'0 0.0
2018-Jan-27 20:44N 45°33' E 013°44'0 0.1
2018-Jan-27 20:29N 45°33' E 013°44'0 0.0
2018-Jan-27 19:59N 45°33' E 013°44'0 0.0
2018-Jan-27 19:30N 45°33' E 013°44'1 2.8
2018-Jan-27 19:00N 45°34' E 013°42'3 6.9
2018-Jan-27 18:30N 45°34' E 013°37'5 9.1
2018-Jan-27 18:00N 45°34' E 013°31'5 9.4
2018-Jan-27 17:30N 45°32' E 013°25'5 9.2
2018-Jan-27 17:00N 45°30' E 013°19'5 9.3
2018-Jan-27 16:30N 45°28' E 013°13'5 9.4
2018-Jan-27 16:00N 45°26' E 013°07'5 9.3
2018-Jan-27 15:30N 45°24' E 013°01'5 9.1
2018-Jan-27 15:00N 45°22' E 012°55'4 7.5
2018-Jan-27 14:31N 45°20' E 012°50'0 0.5
2018-Jan-27 13:58N 45°20' E 012°51'0 0.5
2018-Jan-27 13:21N 45°20' E 012°51'0 0.5
2018-Jan-27 13:00N 45°20' E 012°51'0 0.6
2018-Jan-27 12:30N 45°21' E 012°52'0 0.6
2018-Jan-27 12:00N 45°21' E 012°52'0 0.7
2018-Jan-27 11:30N 45°21' E 012°52'0 0.7
2018-Jan-27 11:00N 45°21' E 012°53'0 0.8
2018-Jan-27 10:30N 45°22' E 012°53'0 0.9
2018-Jan-27 10:00N 45°22' E 012°53'0 0.8
2018-Jan-27 09:30N 45°23' E 012°53'0 0.7
2018-Jan-27 09:00N 45°23' E 012°54'0 0.6
2018-Jan-27 08:30N 45°23' E 012°54'0 0.7
2018-Jan-27 08:00N 45°23' E 012°54'0 0.6
2018-Jan-27 07:30N 45°24' E 012°54'0 0.6
2018-Jan-27 07:00N 45°24' E 012°55'0 0.6
2018-Jan-27 06:30N 45°24' E 012°55'0 0.5
2018-Jan-27 06:00N 45°24' E 012°55'0 0.5
2018-Jan-27 05:29N 45°24' E 012°56'1 1.1
2018-Jan-27 05:00N 45°24' E 012°56'2 4.8
2018-Jan-27 04:30N 45°24' E 012°60'3 6.2
2018-Jan-27 04:00N 45°24' E 013°04'3 5.5
2018-Jan-27 03:30N 45°23' E 013°08'3 6.5
2018-Jan-27 03:00N 45°20' E 013°09'3 6.5
2018-Jan-27 02:30N 45°17' E 013°11'3 6.6
2018-Jan-27 02:00N 45°14' E 013°13'3 6.6
2018-Jan-27 01:30N 45°11' E 013°15'3 6.4
2018-Jan-27 01:00N 45°08' E 013°17'3 6.5
2018-Jan-27 00:30N 45°05' E 013°19'3 6.5
2018-Jan-27 00:00N 45°02' E 013°21'3 6.0
2018-Jan-26 23:30N 44°60' E 013°18'5 9.4
2018-Jan-26 23:00N 44°57' E 013°13'5 9.7
2018-Jan-26 22:30N 44°54' E 013°08'5 9.7
2018-Jan-26 22:00N 44°51' E 013°02'5 9.4
2018-Jan-26 21:30N 44°48' E 012°57'5 9.5
2018-Jan-26 21:00N 44°45' E 012°51'4 8.5
2018-Jan-26 20:30N 44°43' E 012°46'  

Dump ship's entire track history